sensor_id;sensor_type;location;lat;lon;timestamp;P1;P2;P0
67376;PMS7003;54261;46.086;6.588;2024-01-15T05:20:27;7.75;6.75;5.00
67376;PMS7003;54261;46.086;6.588;2024-01-15T05:25:29;4.00;2.00;2.00
67376;PMS7003;54261;46.086;6.588;2024-01-15T05:30:31;8.00;8.00;5.00
67376;PMS7003;54261;46.086;6.588;2024-01-15T05:35:34;21.75;21.00;16.25
67376;PMS7003;54261;46.086;6.588;2024-01-15T05:40:36;7.50;7.00;6.00
67376;PMS7003;54261;46.086;6.588;2024-01-15T05:45:38;4.25;2.75;2.00
67376;PMS7003;54261;46.086;6.588;2024-01-15T05:50:41;7.00;6.75;5.50
67376;PMS7003;54261;46.086;6.588;2024-01-15T05:55:43;10.25;8.75;6.50
67376;PMS7003;54261;46.086;6.588;2024-01-15T06:00:45;7.00;5.00;3.00
67376;PMS7003;54261;46.086;6.588;2024-01-15T06:05:48;3.00;3.00;2.00
67376;PMS7003;54261;46.086;6.588;2024-01-15T06:10:50;14.75;12.50;6.75
67376;PMS7003;54261;46.086;6.588;2024-01-15T06:15:51;5.75;5.00;3.00
67376;PMS7003;54261;46.086;6.588;2024-01-15T06:20:53;1.50;1.50;0.00
67376;PMS7003;54261;46.086;6.588;2024-01-15T06:25:55;5.00;5.00;3.50
67376;PMS7003;54261;46.086;6.588;2024-01-15T06:30:57;4.00;3.00;2.00
67376;PMS7003;54261;46.086;6.588;2024-01-15T06:36:00;5.00;3.25;1.25
67376;PMS7003;54261;46.086;6.588;2024-01-15T06:41:02;0.00;0.00;0.00
67376;PMS7003;54261;46.086;6.588;2024-01-15T06:46:04;2.00;1.00;1.00
67376;PMS7003;54261;46.086;6.588;2024-01-15T06:51:09;8.25;6.00;5.00
67376;PMS7003;54261;46.086;6.588;2024-01-15T06:56:11;2.00;2.00;2.00
67376;PMS7003;54261;46.086;6.588;2024-01-15T07:01:13;3.25;2.75;2.00
67376;PMS7003;54261;46.086;6.588;2024-01-15T07:06:15;2.00;2.00;1.75
67376;PMS7003;54261;46.086;6.588;2024-01-15T07:11:17;3.00;2.00;2.00
67376;PMS7003;54261;46.086;6.588;2024-01-15T07:16:19;1.50;1.50;1.00
67376;PMS7003;54261;46.086;6.588;2024-01-15T07:21:37;2.75;2.75;2.00
67376;PMS7003;54261;46.086;6.588;2024-01-15T07:26:41;2.00;2.00;2.00
67376;PMS7003;54261;46.086;6.588;2024-01-15T07:31:47;2.50;2.25;2.00
67376;PMS7003;54261;46.086;6.588;2024-01-15T07:36:51;4.50;3.00;2.00
67376;PMS7003;54261;46.086;6.588;2024-01-15T07:41:53;6.00;2.00;2.00
67376;PMS7003;54261;46.086;6.588;2024-01-15T07:46:55;2.75;2.00;1.00
67376;PMS7003;54261;46.086;6.588;2024-01-15T07:51:57;1.75;1.75;1.00
67376;PMS7003;54261;46.086;6.588;2024-01-15T07:56:59;2.75;1.50;1.50
67376;PMS7003;54261;46.086;6.588;2024-01-15T08:02:02;3.00;2.75;2.00
67376;PMS7003;54261;46.086;6.588;2024-01-15T08:07:04;11.50;11.00;9.00
67376;PMS7003;54261;46.086;6.588;2024-01-15T16:36:32;6.00;6.00;5.00
67376;PMS7003;54261;46.086;6.588;2024-01-15T16:41:35;29.50;26.25;18.75
67376;PMS7003;54261;46.086;6.588;2024-01-15T16:46:37;66.25;54.50;36.00
67376;PMS7003;54261;46.086;6.588;2024-01-15T16:51:39;12.75;12.75;9.75
67376;PMS7003;54261;46.086;6.588;2024-01-15T16:57:00;19.00;17.50;13.00
67376;PMS7003;54261;46.086;6.588;2024-01-15T17:02:02;22.75;19.75;13.00
67376;PMS7003;54261;46.086;6.588;2024-01-15T17:07:04;51.00;44.75;28.25
67376;PMS7003;54261;46.086;6.588;2024-01-15T17:12:07;35.00;33.50;23.50
67376;PMS7003;54261;46.086;6.588;2024-01-15T17:17:09;46.75;40.75;28.00
67376;PMS7003;54261;46.086;6.588;2024-01-15T17:22:11;23.25;18.25;13.75
67376;PMS7003;54261;46.086;6.588;2024-01-15T17:27:13;29.25;26.75;18.25
67376;PMS7003;54261;46.086;6.588;2024-01-15T17:32:15;29.00;28.00;19.25
67376;PMS7003;54261;46.086;6.588;2024-01-15T17:37:17;24.25;22.75;15.50
67376;PMS7003;54261;46.086;6.588;2024-01-15T17:42:19;26.50;25.50;17.50
67376;PMS7003;54261;46.086;6.588;2024-01-15T17:47:21;22.50;21.75;15.75
67376;PMS7003;54261;46.086;6.588;2024-01-15T17:52:23;22.50;19.50;13.50
67376;PMS7003;54261;46.086;6.588;2024-01-15T17:57:25;24.00;19.25;12.50
67376;PMS7003;54261;46.086;6.588;2024-01-15T18:02:27;15.25;11.25;10.00
67376;PMS7003;54261;46.086;6.588;2024-01-15T18:07:29;59.75;48.25;32.00
67376;PMS7003;54261;46.086;6.588;2024-01-15T18:12:31;43.00;36.25;25.25
67376;PMS7003;54261;46.086;6.588;2024-01-15T18:17:33;25.75;25.75;22.00
67376;PMS7003;54261;46.086;6.588;2024-01-15T18:22:36;32.50;29.75;17.50
67376;PMS7003;54261;46.086;6.588;2024-01-15T18:27:39;53.50;42.00;27.75
67376;PMS7003;54261;46.086;6.588;2024-01-15T18:32:41;17.00;15.50;11.25
67376;PMS7003;54261;46.086;6.588;2024-01-15T18:37:44;19.25;19.25;14.00
67376;PMS7003;54261;46.086;6.588;2024-01-15T18:42:48;25.50;21.50;15.25
67376;PMS7003;54261;46.086;6.588;2024-01-15T18:47:50;33.25;29.50;19.50
67376;PMS7003;54261;46.086;6.588;2024-01-15T18:52:52;31.25;26.50;20.75
67376;PMS7003;54261;46.086;6.588;2024-01-15T18:58:14;78.75;61.00;43.25
67376;PMS7003;54261;46.086;6.588;2024-01-15T19:03:16;36.25;29.50;15.25
67376;PMS7003;54261;46.086;6.588;2024-01-15T19:08:18;30.00;27.50;18.50
67376;PMS7003;54261;46.086;6.588;2024-01-15T19:13:20;37.25;30.00;18.50
67376;PMS7003;54261;46.086;6.588;2024-01-15T19:18:42;36.25;33.50;23.00
67376;PMS7003;54261;46.086;6.588;2024-01-15T19:23:44;45.00;37.25;26.00
67376;PMS7003;54261;46.086;6.588;2024-01-15T19:28:46;47.00;40.50;28.00
67376;PMS7003;54261;46.086;6.588;2024-01-15T19:33:48;61.50;47.00;29.50
67376;PMS7003;54261;46.086;6.588;2024-01-15T19:38:50;91.50;61.00;32.25
67376;PMS7003;54261;46.086;6.588;2024-01-15T19:43:53;66.50;53.25;36.50
67376;PMS7003;54261;46.086;6.588;2024-01-15T19:48:56;75.25;59.25;38.75
67376;PMS7003;54261;46.086;6.588;2024-01-15T19:53:58;50.75;44.75;31.25
67376;PMS7003;54261;46.086;6.588;2024-01-15T19:59:00;43.25;37.75;25.25
67376;PMS7003;54261;46.086;6.588;2024-01-15T20:04:02;59.00;48.50;33.25
67376;PMS7003;54261;46.086;6.588;2024-01-15T20:09:05;42.25;33.75;21.00
67376;PMS7003;54261;46.086;6.588;2024-01-15T20:14:28;90.75;65.00;37.50
67376;PMS7003;54261;46.086;6.588;2024-01-15T20:19:32;39.75;27.00;17.50
67376;PMS7003;54261;46.086;6.588;2024-01-15T20:24:34;15.25;13.50;9.50
67376;PMS7003;54261;46.086;6.588;2024-01-15T20:29:37;46.50;38.75;28.00
67376;PMS7003;54261;46.086;6.588;2024-01-15T20:34:39;48.75;38.25;21.25
67376;PMS7003;54261;46.086;6.588;2024-01-15T20:39:41;24.25;20.00;15.50
67376;PMS7003;54261;46.086;6.588;2024-01-15T20:44:44;25.75;21.75;16.75
67376;PMS7003;54261;46.086;6.588;2024-01-15T20:49:47;20.00;17.50;13.50
67376;PMS7003;54261;46.086;6.588;2024-01-15T20:54:49;20.00;20.00;15.25
67376;PMS7003;54261;46.086;6.588;2024-01-15T20:59:51;57.25;46.25;32.75
67376;PMS7003;54261;46.086;6.588;2024-01-15T21:04:53;36.00;34.50;22.75
67376;PMS7003;54261;46.086;6.588;2024-01-15T21:09:55;28.00;27.25;16.00
67376;PMS7003;54261;46.086;6.588;2024-01-15T21:14:58;13.00;11.00;9.25
67376;PMS7003;54261;46.086;6.588;2024-01-15T21:20:00;18.00;16.00;11.00
67376;PMS7003;54261;46.086;6.588;2024-01-15T21:25:20;10.25;8.75;5.75
67376;PMS7003;54261;46.086;6.588;2024-01-15T21:30:22;25.75;21.25;16.75
67376;PMS7003;54261;46.086;6.588;2024-01-15T21:35:25;28.25;27.25;19.50
67376;PMS7003;54261;46.086;6.588;2024-01-15T21:40:27;25.50;23.75;16.50
67376;PMS7003;54261;46.086;6.588;2024-01-15T21:45:30;13.50;13.50;10.50
67376;PMS7003;54261;46.086;6.588;2024-01-15T21:50:32;16.25;14.75;12.00
67376;PMS7003;54261;46.086;6.588;2024-01-15T21:55:56;66.75;53.00;34.50
67376;PMS7003;54261;46.086;6.588;2024-01-15T22:00:58;47.00;42.25;28.50
67376;PMS7003;54261;46.086;6.588;2024-01-15T22:06:02;20.75;20.75;16.00
